Time;durP1;ratioP1;P1;durP2;ratioP2;P2;SDS_P1;SDS_P2;PMS_P1;PMS_P2;Temp;Humidity;BMP_temperature;BMP_pressure;BME280_temperature;BME280_humidity;BME280_pressure;Samples;Min_cycle;Max_cycle;Signal;HPM_P1;HPM_P2
2022/08/17 00:00:13;;;;;;;13.52;11.73;;;;;;;;;;4973551;28;20043;-73
2022/08/17 00:02:57;;;;;;;15.02;11.38;;;;;;;;;;4972935;28;20554;-74
2022/08/17 00:05:23;;;;;;;13.73;11.40;;;;;;;;;;4973502;28;20074;-74
2022/08/17 00:07:49;;;;;;;10.55;8.68;;;;;;;;;;4973074;28;20031;-73
2022/08/17 00:10:15;;;;;;;13.15;11.70;;;;;;;;;;4973541;28;20058;-74
2022/08/17 00:12:42;;;;;;;11.43;9.18;;;;;;;;;;4972814;28;20113;-74
2022/08/17 00:15:09;;;;;;;17.50;13.40;;;;;;;;;;4972957;28;20044;-74
2022/08/17 00:17:35;;;;;;;14.10;11.20;;;;;;;;;;4972587;28;20061;-74
2022/08/17 00:20:02;;;;;;;10.68;7.85;;;;;;;;;;4972771;28;20042;-73
2022/08/17 00:22:28;;;;;;;14.02;10.88;;;;;;;;;;4973264;28;20038;-74
2022/08/17 00:24:54;;;;;;;9.75;8.18;;;;;;;;;;4972687;28;20050;-74
2022/08/17 00:27:20;;;;;;;14.40;11.02;;;;;;;;;;4972448;28;20907;-73
2022/08/17 00:29:47;;;;;;;9.35;7.93;;;;;;;;;;4972997;28;20023;-74
2022/08/17 00:32:14;;;;;;;12.35;10.13;;;;;;;;;;4972340;28;20066;-74
2022/08/17 00:34:40;;;;;;;17.30;13.25;;;;;;;;;;4957419;28;20058;-75
2022/08/17 00:37:06;;;;;;;12.35;9.05;;;;;;;;;;4962227;28;20022;-73
2022/08/17 00:39:33;;;;;;;10.40;9.32;;;;;;;;;;4964651;28;20048;-74
2022/08/17 00:41:59;;;;;;;11.95;9.40;;;;;;;;;;4980678;28;20592;-74
2022/08/17 00:44:25;;;;;;;11.88;10.57;;;;;;;;;;4980629;28;20436;-74
2022/08/17 00:46:51;;;;;;;13.65;8.10;;;;;;;;;;4980826;28;20047;-74
2022/08/17 00:49:22;;;;;;;11.50;10.05;;;;;;;;;;4964499;28;20242;-74
2022/08/17 00:52:14;;;;;;;12.38;10.52;;;;;;;;;;4964195;28;20019;-74
2022/08/17 00:54:40;;;;;;;11.50;10.15;;;;;;;;;;4987037;28;20019;-74
2022/08/17 00:57:09;;;;;;;16.73;15.02;;;;;;;;;;4980257;28;20018;-74
2022/08/17 00:59:39;;;;;;;13.10;11.73;;;;;;;;;;4982443;28;20708;-74
2022/08/17 01:02:07;;;;;;;12.30;11.00;;;;;;;;;;4980447;28;20023;-73
2022/08/17 01:04:34;;;;;;;18.25;14.13;;;;;;;;;;4980985;28;20026;-73
2022/08/17 01:07:01;;;;;;;12.50;10.05;;;;;;;;;;4980878;28;20022;-73
2022/08/17 01:09:27;;;;;;;14.02;12.43;;;;;;;;;;4980995;28;20030;-74
2022/08/17 01:11:53;;;;;;;12.82;10.95;;;;;;;;;;4964834;28;20500;-74
2022/08/17 01:14:21;;;;;;;16.45;12.60;;;;;;;;;;4981966;28;20026;-73
2022/08/17 01:16:49;;;;;;;13.93;12.07;;;;;;;;;;4981200;28;20606;-73
2022/08/17 01:19:19;;;;;;;14.55;13.02;;;;;;;;;;4965047;28;20049;-75
2022/08/17 01:21:45;;;;;;;;;;;;;;;;;;4980845;28;20022;-75
2022/08/17 01:24:11;;;;;;;14.73;13.13;;;;;;;;;;4964710;28;19942;-75
2022/08/17 01:26:39;;;;;;;14.25;11.93;;;;;;;;;;4979579;28;20027;-75
2022/08/17 01:29:06;;;;;;;13.43;10.45;;;;;;;;;;4980920;28;20030;-74
2022/08/17 01:31:34;;;;;;;15.38;11.85;;;;;;;;;;4981685;28;20030;-75
2022/08/17 01:34:02;;;;;;;11.68;10.43;;;;;;;;;;4981444;28;20022;-74
2022/08/17 01:36:28;;;;;;;12.18;10.82;;;;;;;;;;4963063;28;20034;-74
2022/08/17 01:38:54;;;;;;;9.25;7.30;;;;;;;;;;4981361;28;20157;-74
2022/08/17 01:41:21;;;;;;;10.18;8.57;;;;;;;;;;4981092;28;20026;-76
2022/08/17 01:43:49;;;;;;;14.13;12.15;;;;;;;;;;4960604;28;20378;-74
2022/08/17 01:46:19;;;;;;;16.90;15.13;;;;;;;;;;4981037;28;20062;-75
2022/08/17 01:48:46;;;;;;;16.10;11.85;;;;;;;;;;4980204;28;20031;-74
2022/08/17 01:51:12;;;;;;;12.30;8.43;;;;;;;;;;4983456;28;20397;-75
2022/08/17 01:53:41;;;;;;;10.45;9.05;;;;;;;;;;4971191;28;20030;-75
2022/08/17 01:56:11;;;;;;;10.82;9.13;;;;;;;;;;4971407;28;20490;-75
2022/08/17 01:58:38;;;;;;;11.40;9.15;;;;;;;;;;4970625;28;20435;-75
2022/08/17 02:01:05;;;;;;;12.02;9.02;;;;;;;;;;4971588;28;20035;-75
2022/08/17 02:03:33;;;;;;;8.90;7.43;;;;;;;;;;4953655;28;20019;-74
2022/08/17 02:05:59;;;;;;;19.33;15.82;;;;;;;;;;4974974;28;20026;-75
2022/08/17 02:08:27;;;;;;;8.88;7.85;;;;;;;;;;4990209;28;20077;-75
2022/08/17 02:10:53;;;;;;;12.88;11.57;;;;;;;;;;4972566;28;20061;-75
2022/08/17 02:13:20;;;;;;;11.43;10.07;;;;;;;;;;4990513;28;20033;-75
2022/08/17 02:15:46;;;;;;;15.85;12.68;;;;;;;;;;4990311;28;20030;-75
2022/08/17 02:18:13;;;;;;;11.48;9.70;;;;;;;;;;4990655;28;20033;-75
2022/08/17 02:20:41;;;;;;;8.57;7.60;;;;;;;;;;4990115;28;20057;-75
2022/08/17 02:23:08;;;;;;;15.30;12.05;;;;;;;;;;4972796;28;20061;-75
2022/08/17 02:25:35;;;;;;;9.52;7.38;;;;;;;;;;4990254;28;20477;-75
2022/08/17 02:28:01;;;;;;;11.82;10.10;;;;;;;;;;4990005;28;20062;-75
2022/08/17 02:30:28;;;;;;;9.98;8.98;;;;;;;;;;4989740;28;20053;-75
2022/08/17 02:32:54;;;;;;;12.25;10.75;;;;;;;;;;4990203;28;20083;-75
2022/08/17 02:35:21;;;;;;;13.75;12.25;;;;;;;;;;4988956;28;20030;-76
2022/08/17 02:37:48;;;;;;;9.52;8.25;;;;;;;;;;4990066;28;20038;-76
2022/08/17 02:40:14;;;;;;;15.00;13.40;;;;;;;;;;4972306;28;20049;-75
2022/08/17 02:42:42;;;;;;;18.63;16.80;;;;;;;;;;4963822;28;20535;-75
2022/08/17 02:45:10;;;;;;;18.58;16.05;;;;;;;;;;4970474;28;20031;-75
2022/08/17 02:47:36;;;;;;;17.08;15.20;;;;;;;;;;4952883;28;20886;-76
2022/08/17 02:50:02;;;;;;;21.13;19.00;;;;;;;;;;4970122;28;20031;-75
2022/08/17 02:52:33;;;;;;;11.25;9.85;;;;;;;;;;4970564;28;20105;-76
2022/08/17 02:54:59;;;;;;;13.00;11.50;;;;;;;;;;4970516;28;20023;-76
2022/08/17 02:57:25;;;;;;;13.82;11.63;;;;;;;;;;4972141;28;20026;-75
2022/08/17 02:59:54;;;;;;;18.52;15.55;;;;;;;;;;4985676;28;20045;-75
2022/08/17 03:02:20;;;;;;;20.40;18.40;;;;;;;;;;4972549;28;20162;-76
2022/08/17 03:04:46;;;;;;;19.02;17.00;;;;;;;;;;4953256;28;20026;-75
2022/08/17 03:07:12;;;;;;;13.65;12.25;;;;;;;;;;4970228;28;20026;-75
2022/08/17 03:09:38;;;;;;;16.55;14.80;;;;;;;;;;4971222;28;20035;-76
2022/08/17 03:12:05;;;;;;;11.95;10.40;;;;;;;;;;4974274;28;20030;-76
2022/08/17 03:14:31;;;;;;;12.05;9.52;;;;;;;;;;4973867;28;20051;-76
2022/08/17 03:16:58;;;;;;;13.57;11.10;;;;;;;;;;4973936;28;20029;-76
2022/08/17 03:19:24;;;;;;;12.90;11.18;;;;;;;;;;4973770;28;20439;-75
2022/08/17 03:21:50;;;;;;;15.73;14.10;;;;;;;;;;4976565;28;20031;-75
2022/08/17 03:24:16;;;;;;;21.50;17.52;;;;;;;;;;4993441;28;20909;-76
2022/08/17 03:26:42;;;;;;;21.73;17.85;;;;;;;;;;4993195;28;20054;-75
2022/08/17 03:29:08;;;;;;;16.38;13.65;;;;;;;;;;4993510;28;20038;-75
2022/08/17 03:31:34;;;;;;;16.40;14.73;;;;;;;;;;4975423;28;20022;-75
2022/08/17 03:34:01;;;;;;;13.52;9.70;;;;;;;;;;4993593;28;20034;-75
2022/08/17 03:36:27;;;;;;;11.45;10.15;;;;;;;;;;4983626;28;20026;-75
2022/08/17 03:38:53;;;;;;;9.82;8.75;;;;;;;;;;4979227;28;20493;-74
2022/08/17 03:41:19;;;;;;;15.55;13.50;;;;;;;;;;4992451;28;20058;-74
2022/08/17 03:43:45;;;;;;;15.60;12.20;;;;;;;;;;4993042;28;20388;-74
2022/08/17 03:57:11;;;;;;;22.73;17.00;;;;;;;;;;4973919;28;20045;-74
2022/08/17 03:59:37;;;;;;;15.85;14.20;;;;;;;;;;4955969;28;20120;-75
2022/08/17 04:02:07;;;;;;;13.18;10.45;;;;;;;;;;4973041;28;20054;-76
2022/08/17 04:04:34;;;;;;;9.25;8.15;;;;;;;;;;4973858;28;20026;-74
2022/08/17 04:07:00;;;;;;;10.07;8.52;;;;;;;;;;4973000;28;20389;-75
2022/08/17 04:09:26;;;;;;;15.43;13.27;;;;;;;;;;4973155;28;20493;-75
2022/08/17 04:11:53;;;;;;;13.65;12.25;;;;;;;;;;4973594;28;20026;-75
2022/08/17 04:14:19;;;;;;;18.48;16.60;;;;;;;;;;4973516;28;20023;-75
2022/08/17 04:16:45;;;;;;;10.65;8.50;;;;;;;;;;4955742;28;20114;-75
2022/08/17 04:19:11;;;;;;;9.68;7.97;;;;;;;;;;4973150;28;20553;-75
2022/08/17 04:21:38;;;;;;;8.43;7.10;;;;;;;;;;4973019;28;20058;-75
2022/08/17 04:24:04;;;;;;;15.10;13.48;;;;;;;;;;4973048;28;20416;-75
2022/08/17 04:26:31;;;;;;;9.68;7.07;;;;;;;;;;4972846;28;20074;-75
2022/08/17 04:28:57;;;;;;;9.07;8.13;;;;;;;;;;4955222;28;20034;-76
2022/08/17 04:31:24;;;;;;;13.20;11.30;;;;;;;;;;4972118;28;20027;-75
2022/08/17 04:33:50;;;;;;;17.33;13.55;;;;;;;;;;4973194;28;20031;-75
2022/08/17 04:36:16;;;;;;;6.72;5.70;;;;;;;;;;4980651;28;20089;-75
2022/08/17 04:38:45;;;;;;;12.73;11.43;;;;;;;;;;4974359;28;20039;-75
2022/08/17 04:43:57;;;;;;;11.75;10.27;;;;;;;;;;4992166;28;20037;-76
2022/08/17 04:46:25;;;;;;;10.18;8.98;;;;;;;;;;4991445;28;20100;-75
2022/08/17 04:48:52;;;;;;;7.85;6.47;;;;;;;;;;4974326;28;20034;-75
2022/08/17 04:51:18;;;;;;;10.25;8.88;;;;;;;;;;4979434;28;20066;-75
2022/08/17 04:53:45;;;;;;;10.95;9.82;;;;;;;;;;4954999;28;20074;-75
2022/08/17 04:56:14;;;;;;;13.68;12.15;;;;;;;;;;4972315;28;20027;-75
2022/08/17 04:58:41;;;;;;;11.63;10.13;;;;;;;;;;4972383;28;20034;-75
2022/08/17 05:01:07;;;;;;;14.32;11.40;;;;;;;;;;4972541;28;20576;-74
2022/08/17 05:03:33;;;;;;;8.57;6.88;;;;;;;;;;4971771;28;20031;-75
2022/08/17 05:05:59;;;;;;;14.60;12.60;;;;;;;;;;4972142;28;20027;-74
2022/08/17 05:08:25;;;;;;;16.05;14.00;;;;;;;;;;4955489;28;20027;-74
2022/08/17 05:10:52;;;;;;;17.77;14.93;;;;;;;;;;4972104;28;20042;-76
2022/08/17 05:13:19;;;;;;;18.38;15.90;;;;;;;;;;4971958;28;20031;-75
2022/08/17 05:15:46;;;;;;;19.13;17.13;;;;;;;;;;4971985;28;20046;-76
2022/08/17 05:18:12;;;;;;;20.05;18.02;;;;;;;;;;4972248;28;20109;-76
2022/08/17 05:20:40;;;;;;;17.05;15.15;;;;;;;;;;4979744;28;20125;-75
2022/08/17 05:23:08;;;;;;;11.18;9.75;;;;;;;;;;4991270;28;20018;-75
2022/08/17 05:25:36;;;;;;;15.75;14.05;;;;;;;;;;4980597;28;20433;-76
2022/08/17 05:28:03;;;;;;;16.05;13.18;;;;;;;;;;4963227;28;20022;-74
2022/08/17 05:30:29;;;;;;;12.82;10.57;;;;;;;;;;4979385;28;20026;-74
2022/08/17 05:32:57;;;;;;;17.90;16.00;;;;;;;;;;4980828;28;20034;-75
2022/08/17 05:35:23;;;;;;;18.45;16.05;;;;;;;;;;4980240;28;20110;-74
2022/08/17 05:37:49;;;;;;;17.17;14.52;;;;;;;;;;4981000;28;20041;-74
2022/08/17 05:40:16;;;;;;;18.15;15.88;;;;;;;;;;4978559;28;20057;-75
2022/08/17 05:42:42;;;;;;;14.35;12.55;;;;;;;;;;4971086;28;20023;-74
2022/08/17 05:45:09;;;;;;;12.50;10.38;;;;;;;;;;4954183;28;20053;-75
2022/08/17 05:47:36;;;;;;;15.45;13.55;;;;;;;;;;4971644;28;20054;-75
2022/08/17 05:50:02;;;;;;;13.05;11.55;;;;;;;;;;4953728;28;20039;-73
2022/08/17 05:52:41;;;;;;;12.73;11.43;;;;;;;;;;4983882;28;20038;-73
2022/08/17 05:55:25;;;;;;;11.48;10.27;;;;;;;;;;4990659;28;20033;-74
2022/08/17 05:57:51;;;;;;;21.83;18.10;;;;;;;;;;4990608;28;20057;-74
2022/08/17 06:00:20;;;;;;;20.35;18.15;;;;;;;;;;4990664;28;20080;-74
2022/08/17 06:03:22;;;;;;;17.67;15.80;;;;;;;;;;4990205;28;20050;-73
2022/08/17 06:05:49;;;;;;;14.95;13.43;;;;;;;;;;4973426;28;20026;-74
2022/08/17 06:08:16;;;;;;;17.23;14.30;;;;;;;;;;4990265;28;20478;-75
2022/08/17 06:11:02;;;;;;;15.48;12.52;;;;;;;;;;4990056;28;20022;-76
2022/08/17 06:13:38;;;;;;;13.45;10.15;;;;;;;;;;4990499;28;20101;-74
2022/08/17 06:16:07;;;;;;;14.88;13.20;;;;;;;;;;4974676;28;20549;-74
2022/08/17 06:18:41;;;;;;;11.07;8.00;;;;;;;;;;4970863;28;20050;-71
2022/08/17 06:21:11;;;;;;;7.45;6.40;;;;;;;;;;4974690;28;20382;-72
2022/08/17 06:23:40;;;;;;;14.13;12.25;;;;;;;;;;4975077;28;20548;-72
2022/08/17 06:26:18;;;;;;;11.20;9.32;;;;;;;;;;4987181;28;20045;-72
2022/08/17 06:28:54;;;;;;;8.65;7.50;;;;;;;;;;4972193;28;20088;-72
2022/08/17 06:31:26;;;;;;;14.20;9.52;;;;;;;;;;4976335;28;20914;-72
2022/08/17 06:33:53;;;;;;;15.93;11.55;;;;;;;;;;4974272;28;20486;-72
2022/08/17 06:36:22;;;;;;;16.63;9.80;;;;;;;;;;4980168;28;20050;-73
2022/08/17 06:38:58;;;;;;;15.73;8.30;;;;;;;;;;4989066;28;20481;-73
2022/08/17 06:41:25;;;;;;;13.20;9.88;;;;;;;;;;4978986;28;20023;-73
2022/08/17 06:43:57;;;;;;;11.00;6.93;;;;;;;;;;4973154;28;20037;-73
2022/08/17 06:46:35;;;;;;;13.85;10.32;;;;;;;;;;4976598;28;20537;-73
2022/08/17 06:49:01;;;;;;;13.05;9.95;;;;;;;;;;4977994;28;20042;-73
2022/08/17 06:51:35;;;;;;;11.15;7.97;;;;;;;;;;4981183;28;20030;-73
2022/08/17 06:54:19;;;;;;;14.70;8.38;;;;;;;;;;4979050;28;20485;-73
2022/08/17 06:56:52;;;;;;;12.50;8.70;;;;;;;;;;4976855;28;20027;-73
2022/08/17 06:59:22;;;;;;;13.90;8.85;;;;;;;;;;4978843;28;20058;-73
2022/08/17 07:01:49;;;;;;;13.93;8.25;;;;;;;;;;4974817;28;20023;-74
2022/08/17 07:04:21;;;;;;;15.30;9.43;;;;;;;;;;4980174;28;20575;-73
2022/08/17 07:06:56;;;;;;;11.68;8.77;;;;;;;;;;4978346;28;20066;-73
2022/08/17 07:09:30;;;;;;;13.68;8.95;;;;;;;;;;4977190;28;20034;-73
2022/08/17 07:11:57;;;;;;;18.52;12.40;;;;;;;;;;4977321;28;20081;-71
2022/08/17 07:14:29;;;;;;;12.20;10.68;;;;;;;;;;4960816;28;20058;-72
2022/08/17 07:16:57;;;;;;;15.35;13.75;;;;;;;;;;4981534;28;20031;-72
2022/08/17 07:19:26;;;;;;;11.00;7.93;;;;;;;;;;4973219;28;20058;-73
2022/08/17 07:21:56;;;;;;;13.15;9.00;;;;;;;;;;4973776;28;20037;-75
2022/08/17 07:24:43;;;;;;;13.35;8.15;;;;;;;;;;4986532;28;20023;-73
2022/08/17 07:27:09;;;;;;;15.13;8.90;;;;;;;;;;4977604;28;20468;-75
2022/08/17 07:29:58;;;;;;;15.90;11.52;;;;;;;;;;4989254;28;20037;-74
2022/08/17 07:32:30;;;;;;;13.77;8.80;;;;;;;;;;4976160;28;20508;-74
2022/08/17 07:35:11;;;;;;;14.82;9.70;;;;;;;;;;4974433;28;20409;-74
2022/08/17 07:37:39;;;;;;;19.10;16.80;;;;;;;;;;4970712;28;20078;-75
2022/08/17 07:40:19;;;;;;;14.05;8.82;;;;;;;;;;4955142;28;20740;-74
2022/08/17 07:43:04;;;;;;;14.50;10.10;;;;;;;;;;4987172;28;20023;-74
2022/08/17 07:48:18;;;;;;;13.63;10.95;;;;;;;;;;4969221;28;20060;-74
2022/08/17 07:50:44;;;;;;;19.45;13.70;;;;;;;;;;4968067;28;20031;-74
2022/08/17 07:53:36;;;;;;;13.65;12.18;;;;;;;;;;4968832;28;20793;-74
2022/08/17 07:56:03;;;;;;;16.73;13.30;;;;;;;;;;4969657;28;20039;-74
2022/08/17 07:58:29;;;;;;;14.32;11.43;;;;;;;;;;4972676;28;20029;-74
2022/08/17 08:01:10;;;;;;;11.43;9.65;;;;;;;;;;4964112;28;20065;-74
2022/08/17 08:03:42;;;;;;;20.80;14.27;;;;;;;;;;4970640;28;20027;-73
2022/08/17 08:06:19;;;;;;;14.52;11.27;;;;;;;;;;4962993;28;20079;-73
2022/08/17 08:08:49;;;;;;;21.35;17.35;;;;;;;;;;4965656;28;20035;-71
2022/08/17 08:11:28;;;;;;;11.95;10.05;;;;;;;;;;4964625;28;20117;-73
2022/08/17 08:13:57;;;;;;;14.90;13.15;;;;;;;;;;4955555;28;20035;-75
2022/08/17 08:16:25;;;;;;;16.70;14.15;;;;;;;;;;4964710;28;20081;-74
2022/08/17 08:18:55;;;;;;;13.70;11.60;;;;;;;;;;4964403;28;20165;-73
2022/08/17 08:21:23;;;;;;;18.17;14.52;;;;;;;;;;4957147;28;20046;-73
2022/08/17 08:24:00;;;;;;;16.55;13.77;;;;;;;;;;4964925;28;20082;-72
2022/08/17 08:26:30;;;;;;;23.15;19.38;;;;;;;;;;4964768;28;20031;-73
2022/08/17 08:29:00;;;;;;;22.48;18.08;;;;;;;;;;4965029;28;20443;-71
2022/08/17 08:31:33;;;;;;;16.15;13.63;;;;;;;;;;4963828;28;20031;-74
2022/08/17 08:34:00;;;;;;;12.90;11.48;;;;;;;;;;4951843;28;20389;-72
2022/08/17 08:36:36;;;;;;;11.00;9.88;;;;;;;;;;4964924;28;20096;-73
2022/08/17 08:39:11;;;;;;;13.05;10.82;;;;;;;;;;4964889;28;20140;-72
2022/08/17 08:41:45;;;;;;;19.48;17.27;;;;;;;;;;4964742;28;20026;-71
2022/08/17 08:44:30;;;;;;;15.55;13.93;;;;;;;;;;4968455;28;20030;-73
2022/08/17 08:46:59;;;;;;;12.48;9.10;;;;;;;;;;4970446;28;20061;-73
2022/08/17 08:49:25;;;;;;;18.25;12.90;;;;;;;;;;4977590;28;20477;-72
2022/08/17 08:51:54;;;;;;;15.85;12.15;;;;;;;;;;4976588;28;20623;-73
2022/08/17 08:54:20;;;;;;;14.65;12.10;;;;;;;;;;4977358;28;20026;-73
2022/08/17 08:56:52;;;;;;;13.23;11.57;;;;;;;;;;4979714;28;20093;-73
2022/08/17 08:59:34;;;;;;;14.10;12.60;;;;;;;;;;4964077;28;20120;-73
2022/08/17 09:02:15;;;;;;;18.10;14.98;;;;;;;;;;4977123;28;20056;-72
2022/08/17 09:04:47;;;;;;;8.35;7.45;;;;;;;;;;4978559;28;20350;-71
2022/08/17 09:07:35;;;;;;;7.93;6.57;;;;;;;;;;4978321;28;20546;-71
2022/08/17 09:10:24;;;;;;;11.35;8.85;;;;;;;;;;4985287;28;20026;-74
2022/08/17 09:12:57;;;;;;;12.90;10.93;;;;;;;;;;4981927;28;20027;-73
2022/08/17 09:15:28;;;;;;;15.05;12.38;;;;;;;;;;4981795;28;20037;-73
2022/08/17 09:17:54;;;;;;;16.42;12.43;;;;;;;;;;4977348;28;20038;-73
2022/08/17 09:20:26;;;;;;;11.55;10.35;;;;;;;;;;4975040;28;20034;-75
2022/08/17 09:22:59;;;;;;;11.98;10.48;;;;;;;;;;4973093;28;20069;-74
2022/08/17 09:25:28;;;;;;;14.32;12.02;;;;;;;;;;4965239;28;20034;-74
2022/08/17 09:27:57;;;;;;;17.55;14.70;;;;;;;;;;4977077;28;20035;-74
2022/08/17 09:30:25;;;;;;;17.38;13.75;;;;;;;;;;4979735;28;20031;-74
2022/08/17 09:33:01;;;;;;;11.93;10.63;;;;;;;;;;4976859;28;20145;-73
2022/08/17 09:35:29;;;;;;;15.43;13.82;;;;;;;;;;4975568;28;20138;-73
2022/08/17 09:38:01;;;;;;;9.32;8.15;;;;;;;;;;4979975;28;20026;-73
2022/08/17 09:40:33;;;;;;;13.60;11.93;;;;;;;;;;4977127;28;20254;-71
2022/08/17 09:43:03;;;;;;;12.18;10.90;;;;;;;;;;4978834;28;20498;-71
2022/08/17 09:45:41;;;;;;;13.70;11.52;;;;;;;;;;4978337;28;20065;-73
2022/08/17 09:48:16;;;;;;;12.00;10.20;;;;;;;;;;4974758;28;20030;-73
2022/08/17 09:50:59;;;;;;;12.73;11.43;;;;;;;;;;4978723;28;20038;-73
2022/08/17 09:53:25;;;;;;;15.65;12.73;;;;;;;;;;4979408;28;20027;-72
2022/08/17 09:56:10;;;;;;;15.90;14.25;;;;;;;;;;4963270;28;20027;-70
2022/08/17 09:58:42;;;;;;;13.45;12.05;;;;;;;;;;4977150;28;20037;-69
2022/08/17 10:01:12;;;;;;;12.50;11.20;;;;;;;;;;4978688;28;20038;-70
2022/08/17 10:03:38;;;;;;;;;;;;;;;;;;4974140;28;20112;-70
2022/08/17 10:06:34;;;;;;;11.02;9.93;;;;;;;;;;4977500;28;20576;-70
2022/08/17 10:09:13;;;;;;;10.70;9.02;;;;;;;;;;4909160;28;20495;-70
2022/08/17 10:14:34;;;;;;;11.40;10.20;;;;;;;;;;4977893;28;20110;-69
2022/08/17 10:17:21;;;;;;;10.23;8.30;;;;;;;;;;4978422;28;20719;-68
2022/08/17 10:20:05;;;;;;;9.70;8.60;;;;;;;;;;4973588;28;20070;-69
2022/08/17 10:28:19;;;;;;;11.52;9.73;;;;;;;;;;4975968;28;20049;-68
2022/08/17 10:30:47;;;;;;;10.10;7.50;;;;;;;;;;4977037;28;20030;-71
2022/08/17 10:33:22;;;;;;;12.07;10.68;;;;;;;;;;4977543;28;20568;-69
2022/08/17 10:36:09;;;;;;;14.75;13.20;;;;;;;;;;4978744;28;20037;-69
2022/08/17 10:38:58;;;;;;;9.95;8.40;;;;;;;;;;4974913;28;20113;-68
2022/08/17 10:41:41;;;;;;;13.75;6.38;;;;;;;;;;4962904;28;20455;-69
2022/08/17 10:44:22;;;;;;;11.07;6.75;;;;;;;;;;4978668;28;20034;-68
2022/08/17 10:46:58;;;;;;;11.65;5.93;;;;;;;;;;4975208;28;20077;-69
2022/08/17 10:49:28;;;;;;;14.70;6.13;;;;;;;;;;4977649;28;20044;-69
2022/08/17 10:51:58;;;;;;;19.15;11.93;;;;;;;;;;4974540;28;20489;-69
2022/08/17 10:54:24;;;;;;;12.30;8.15;;;;;;;;;;4966239;28;20030;-67
2022/08/17 10:56:54;;;;;;;14.23;7.10;;;;;;;;;;4976828;28;20023;-68
2022/08/17 10:59:35;;;;;;;11.88;6.68;;;;;;;;;;4979014;28;20042;-68
2022/08/17 11:02:04;;;;;;;11.35;7.32;;;;;;;;;;4977002;28;20064;-70
2022/08/17 11:04:57;;;;;;;13.80;10.45;;;;;;;;;;4976862;28;20037;-72
2022/08/17 11:07:26;;;;;;;12.15;6.88;;;;;;;;;;4960350;28;20144;-71
2022/08/17 11:09:57;;;;;;;11.68;7.45;;;;;;;;;;4985574;28;20085;-71
2022/08/17 11:12:42;;;;;;;25.55;23.08;;;;;;;;;;4971063;28;20543;-73
2022/08/17 11:15:15;;;;;;;21.98;19.63;;;;;;;;;;4985359;28;20054;-72
2022/08/17 11:17:49;;;;;;;23.55;21.13;;;;;;;;;;4969971;28;20073;-72
2022/08/17 11:20:18;;;;;;;26.95;24.25;;;;;;;;;;4969385;28;20034;-72
2022/08/17 11:23:03;;;;;;;20.35;18.35;;;;;;;;;;4971160;28;20022;-72
2022/08/17 11:25:38;;;;;;;26.73;23.90;;;;;;;;;;4953811;28;20027;-72
2022/08/17 11:28:19;;;;;;;27.95;25.10;;;;;;;;;;4970961;28;20031;-72
2022/08/17 11:30:55;;;;;;;21.02;18.85;;;;;;;;;;4971754;28;20477;-73
2022/08/17 11:33:34;;;;;;;22.98;20.55;;;;;;;;;;4974150;28;20081;-73
2022/08/17 11:36:12;;;;;;;24.27;21.75;;;;;;;;;;4956620;28;20026;-72
2022/08/17 11:38:56;;;;;;;24.52;21.95;;;;;;;;;;4974095;28;20470;-71
2022/08/17 11:41:39;;;;;;;27.88;25.15;;;;;;;;;;4956664;28;20026;-72
2022/08/17 11:44:09;;;;;;;25.60;22.42;;;;;;;;;;4973894;28;20019;-73
2022/08/17 11:52:38;;;;;;;31.30;28.48;;;;;;;;;;4983201;28;20037;-72
2022/08/17 11:55:05;;;;;;;30.15;26.42;;;;;;;;;;4978503;28;20039;-72
2022/08/17 11:57:32;;;;;;;24.92;22.45;;;;;;;;;;4974984;28;20077;-72
2022/08/17 11:59:58;;;;;;;26.42;23.50;;;;;;;;;;4974880;28;20423;-72
2022/08/17 12:02:30;;;;;;;28.10;25.20;;;;;;;;;;4974742;28;20102;-72
2022/08/17 12:05:03;;;;;;;27.40;24.88;;;;;;;;;;4974106;28;20117;-72
2022/08/17 12:07:32;;;;;;;27.70;24.90;;;;;;;;;;4976866;28;20026;-73
2022/08/17 12:09:59;;;;;;;26.20;23.50;;;;;;;;;;4978115;28;20031;-73
2022/08/17 12:12:34;;;;;;;32.80;29.38;;;;;;;;;;4976265;28;20094;-72
2022/08/17 12:15:01;;;;;;;32.83;29.50;;;;;;;;;;4975981;28;20077;-72
2022/08/17 12:17:29;;;;;;;29.25;26.17;;;;;;;;;;4996559;28;20492;-71
2022/08/17 12:20:07;;;;;;;22.13;19.92;;;;;;;;;;4995737;28;20038;-72
2022/08/17 12:22:52;;;;;;;32.45;29.27;;;;;;;;;;4999224;28;20539;-72
2022/08/17 12:25:31;;;;;;;36.92;33.20;;;;;;;;;;5003057;28;20649;-73
2022/08/17 12:27:58;;;;;;;28.27;25.58;;;;;;;;;;4999242;28;20671;-73
2022/08/17 12:30:24;;;;;;;29.67;26.67;;;;;;;;;;5001523;28;20049;-72
2022/08/17 12:32:51;;;;;;;34.00;30.75;;;;;;;;;;5000574;28;20022;-73
2022/08/17 12:35:22;;;;;;;27.75;20.95;;;;;;;;;;4994106;28;20034;-73
2022/08/17 12:37:49;;;;;;;32.58;29.42;;;;;;;;;;4975151;28;20088;-72
2022/08/17 12:40:21;;;;;;;26.25;23.63;;;;;;;;;;4974983;28;20034;-73
2022/08/17 12:43:07;;;;;;;22.92;20.35;;;;;;;;;;4981813;28;20030;-73
2022/08/17 12:45:35;;;;;;;29.30;26.13;;;;;;;;;;4984156;28;20114;-73
2022/08/17 12:48:06;;;;;;;34.83;31.52;;;;;;;;;;4980414;28;20055;-72
2022/08/17 12:50:33;;;;;;;31.88;28.65;;;;;;;;;;4974794;28;20046;-73
2022/08/17 12:52:59;;;;;;;19.05;17.15;;;;;;;;;;4974558;28;20027;-72
2022/08/17 12:55:25;;;;;;;29.52;26.55;;;;;;;;;;4958093;28;20034;-72
2022/08/17 12:57:57;;;;;;;27.25;24.10;;;;;;;;;;4956428;28;20031;-72
2022/08/17 13:00:28;;;;;;;30.48;27.50;;;;;;;;;;4973485;28;20035;-73
2022/08/17 13:02:57;;;;;;;29.15;26.02;;;;;;;;;;4973526;28;20101;-72
2022/08/17 13:05:34;;;;;;;35.05;31.83;;;;;;;;;;4958764;28;20027;-72
2022/08/17 13:08:03;;;;;;;29.70;26.60;;;;;;;;;;4967643;28;20031;-73
2022/08/17 13:10:31;;;;;;;25.65;23.20;;;;;;;;;;4987940;28;20030;-72
2022/08/17 13:13:02;;;;;;;10.80;9.70;;;;;;;;;;4973443;28;20035;-73
2022/08/17 13:15:30;;;;;;;16.83;15.00;;;;;;;;;;4979518;28;20027;-71
2022/08/17 13:18:25;;;;;;;10.85;8.88;;;;;;;;;;4976606;28;20033;-73
2022/08/17 13:20:53;;;;;;;12.65;11.35;;;;;;;;;;4984686;28;20111;-73
2022/08/17 13:23:19;;;;;;;18.42;16.60;;;;;;;;;;4990867;28;20026;-73
2022/08/17 13:25:53;;;;;;;19.02;17.10;;;;;;;;;;4983982;28;20112;-72
2022/08/17 13:28:20;;;;;;;11.15;9.75;;;;;;;;;;4982151;28;20936;-73
2022/08/17 13:30:46;;;;;;;14.43;12.65;;;;;;;;;;4980261;28;20023;-74
2022/08/17 13:33:30;;;;;;;14.13;12.27;;;;;;;;;;4957535;28;20029;-72
2022/08/17 13:36:07;;;;;;;45.75;41.53;;;;;;;;;;4985670;28;20026;-71
2022/08/17 13:38:39;;;;;;;10.63;9.52;;;;;;;;;;4977037;28;20086;-71
2022/08/17 13:41:06;;;;;;;22.27;19.92;;;;;;;;;;4978978;28;20074;-72
2022/08/17 13:43:47;;;;;;;42.78;38.38;;;;;;;;;;4980472;28;20073;-72
2022/08/17 13:46:18;;;;;;;28.55;25.58;;;;;;;;;;4974379;28;20042;-72
2022/08/17 13:48:44;;;;;;;42.65;38.53;;;;;;;;;;4972519;28;20034;-72
2022/08/17 13:51:14;;;;;;;34.00;30.52;;;;;;;;;;4971326;28;20027;-72
2022/08/17 13:53:40;;;;;;;43.78;39.55;;;;;;;;;;4953778;28;20027;-72
2022/08/17 13:56:12;;;;;;;38.70;34.72;;;;;;;;;;4953957;28;20497;-72
2022/08/17 13:58:52;;;;;;;40.38;36.38;;;;;;;;;;4970978;28;20493;-72
2022/08/17 14:01:50;;;;;;;30.45;27.20;;;;;;;;;;4973081;28;20054;-71
2022/08/17 14:04:20;;;;;;;39.17;35.47;;;;;;;;;;4961170;28;20485;-72
2022/08/17 14:06:49;;;;;;;42.28;37.97;;;;;;;;;;4974849;28;20099;-72
2022/08/17 14:09:17;;;;;;;51.80;46.77;;;;;;;;;;4971305;28;20031;-72
2022/08/17 14:11:43;;;;;;;39.95;35.90;;;;;;;;;;4971074;28;20019;-73
2022/08/17 14:14:10;;;;;;;36.38;32.80;;;;;;;;;;4971044;28;20103;-73
2022/08/17 14:16:40;;;;;;;45.67;41.05;;;;;;;;;;4953536;28;20027;-73
2022/08/17 14:19:08;;;;;;;26.58;23.92;;;;;;;;;;4970672;28;20317;-73
2022/08/17 14:21:35;;;;;;;11.98;10.35;;;;;;;;;;4970965;28;20026;-75
2022/08/17 14:24:01;;;;;;;11.55;10.35;;;;;;;;;;4970925;28;20085;-73
2022/08/17 14:26:27;;;;;;;26.55;23.80;;;;;;;;;;4970871;28;20031;-70
2022/08/17 14:28:53;;;;;;;12.95;11.10;;;;;;;;;;4970809;28;20031;-73
2022/08/17 14:31:20;;;;;;;21.13;15.65;;;;;;;;;;4970178;28;20484;-71
2022/08/17 14:33:46;;;;;;;16.73;15.02;;;;;;;;;;4970450;28;20035;-71
2022/08/17 14:36:12;;;;;;;19.70;17.63;;;;;;;;;;4978746;28;20025;-71
2022/08/17 14:38:38;;;;;;;20.67;18.52;;;;;;;;;;4989970;28;20386;-71
2022/08/17 14:41:04;;;;;;;20.05;18.17;;;;;;;;;;4989792;28;20038;-72
2022/08/17 14:43:33;;;;;;;24.35;21.98;;;;;;;;;;4972397;28;20062;-71
2022/08/17 14:45:59;;;;;;;15.85;14.25;;;;;;;;;;4989665;28;20026;-72
2022/08/17 14:48:25;;;;;;;13.73;10.55;;;;;;;;;;4989751;28;20573;-71
2022/08/17 14:50:51;;;;;;;27.80;24.80;;;;;;;;;;4989857;28;20044;-70
2022/08/17 14:53:19;;;;;;;9.68;8.52;;;;;;;;;;4989851;28;20820;-72
2022/08/17 14:55:45;;;;;;;11.07;9.93;;;;;;;;;;4990305;28;20029;-72
2022/08/17 14:58:11;;;;;;;25.80;23.13;;;;;;;;;;4990220;28;20089;-71
2022/08/17 15:00:38;;;;;;;13.13;11.82;;;;;;;;;;4989659;28;20196;-70
2022/08/17 15:03:04;;;;;;;21.08;16.27;;;;;;;;;;4989747;28;20366;-69
2022/08/17 15:05:32;;;;;;;16.65;14.95;;;;;;;;;;4988966;28;20057;-69
2022/08/17 15:07:59;;;;;;;15.38;13.43;;;;;;;;;;4988925;28;20041;-69
2022/08/17 15:10:26;;;;;;;11.55;10.13;;;;;;;;;;4989338;28;20412;-69